Garden City, Minnesota
Current Conditions -  °F | °C
As of 5:15 PM on Thursday 27 Nov 2014 (Local Time) from KMKT Reporting Station
Clear Clear  
Wind Chill: -16°   Ceiling: Unl
Heat Index: -2°   Visibility: 10mi
Dew Point: -11°   Wind: 7mph
Humidity: 66%   Direction: 140°SE
Pressure: 30.37"   Gusts: NA
Location:  44.05°N, 94.16°W
Report Text: KMKT 272315Z AUTO 14006KT 10SM CLR M19/M24 A3037 RMK AO1
Loading
Personal Weather Stations






























Interactive Weather Map New forecast layout! Learn more

10-Day Weather Forecast

Advertisements
Track Severe Weather on mobile